sensor_id;sensor_type;location;lat;lon;timestamp;P1;durP1;ratioP1;P2;durP2;ratioP2
19788;SDS011;10054;59.332;18.244;2023-05-10T00:01:33;5.53;;;3.47;;
19788;SDS011;10054;59.332;18.244;2023-05-10T00:04:02;4.97;;;3.30;;
19788;SDS011;10054;59.332;18.244;2023-05-10T00:06:31;4.43;;;3.27;;
19788;SDS011;10054;59.332;18.244;2023-05-10T00:09:00;5.83;;;3.50;;
19788;SDS011;10054;59.332;18.244;2023-05-10T00:11:29;5.43;;;3.60;;
19788;SDS011;10054;59.332;18.244;2023-05-10T00:13:58;3.90;;;3.37;;
19788;SDS011;10054;59.332;18.244;2023-05-10T00:16:27;5.40;;;3.40;;
19788;SDS011;10054;59.332;18.244;2023-05-10T00:18:56;5.33;;;3.80;;
19788;SDS011;10054;59.332;18.244;2023-05-10T00:21:24;6.17;;;3.47;;
19788;SDS011;10054;59.332;18.244;2023-05-10T00:23:54;5.73;;;3.73;;
19788;SDS011;10054;59.332;18.244;2023-05-10T00:26:23;7.10;;;3.80;;
19788;SDS011;10054;59.332;18.244;2023-05-10T00:28:52;6.30;;;3.97;;
19788;SDS011;10054;59.332;18.244;2023-05-10T00:31:21;4.87;;;3.50;;
19788;SDS011;10054;59.332;18.244;2023-05-10T00:33:50;5.17;;;3.60;;
19788;SDS011;10054;59.332;18.244;2023-05-10T00:36:19;7.00;;;3.90;;
19788;SDS011;10054;59.332;18.244;2023-05-10T00:38:47;5.43;;;3.83;;
19788;SDS011;10054;59.332;18.244;2023-05-10T00:41:17;7.07;;;4.23;;
19788;SDS011;10054;59.332;18.244;2023-05-10T00:43:47;6.30;;;4.10;;
19788;SDS011;10054;59.332;18.244;2023-05-10T00:46:16;5.60;;;3.97;;
19788;SDS011;10054;59.332;18.244;2023-05-10T00:48:47;6.97;;;4.00;;
19788;SDS011;10054;59.332;18.244;2023-05-10T00:51:16;4.33;;;3.77;;
19788;SDS011;10054;59.332;18.244;2023-05-10T00:53:46;5.03;;;3.93;;
19788;SDS011;10054;59.332;18.244;2023-05-10T00:56:15;7.03;;;4.20;;
19788;SDS011;10054;59.332;18.244;2023-05-10T00:58:45;5.73;;;4.37;;
19788;SDS011;10054;59.332;18.244;2023-05-10T01:01:13;5.10;;;4.10;;
19788;SDS011;10054;59.332;18.244;2023-05-10T01:03:43;7.90;;;4.20;;
19788;SDS011;10054;59.332;18.244;2023-05-10T01:06:12;7.00;;;4.07;;
19788;SDS011;10054;59.332;18.244;2023-05-10T01:08:41;9.10;;;4.13;;
19788;SDS011;10054;59.332;18.244;2023-05-10T01:11:11;7.73;;;4.03;;
19788;SDS011;10054;59.332;18.244;2023-05-10T01:13:41;4.27;;;3.60;;
19788;SDS011;10054;59.332;18.244;2023-05-10T01:16:12;5.33;;;3.93;;
19788;SDS011;10054;59.332;18.244;2023-05-10T01:18:42;5.10;;;3.50;;
19788;SDS011;10054;59.332;18.244;2023-05-10T01:27:01;6.70;;;4.23;;
19788;SDS011;10054;59.332;18.244;2023-05-10T01:32:34;5.17;;;3.90;;
19788;SDS011;10054;59.332;18.244;2023-05-10T01:35:07;7.33;;;4.13;;
19788;SDS011;10054;59.332;18.244;2023-05-10T01:37:51;4.77;;;4.00;;
19788;SDS011;10054;59.332;18.244;2023-05-10T01:42:56;6.77;;;4.30;;
19788;SDS011;10054;59.332;18.244;2023-05-10T01:45:39;4.60;;;4.20;;
19788;SDS011;10054;59.332;18.244;2023-05-10T01:48:12;6.37;;;4.33;;
19788;SDS011;10054;59.332;18.244;2023-05-10T01:50:43;4.23;;;3.83;;
19788;SDS011;10054;59.332;18.244;2023-05-10T01:53:14;5.03;;;3.90;;
19788;SDS011;10054;59.332;18.244;2023-05-10T01:55:50;6.47;;;4.07;;
19788;SDS011;10054;59.332;18.244;2023-05-10T01:58:23;6.97;;;4.17;;
19788;SDS011;10054;59.332;18.244;2023-05-10T02:00:54;8.50;;;4.60;;
19788;SDS011;10054;59.332;18.244;2023-05-10T02:03:25;5.17;;;4.20;;
19788;SDS011;10054;59.332;18.244;2023-05-10T02:05:56;5.10;;;4.50;;
19788;SDS011;10054;59.332;18.244;2023-05-10T02:08:26;5.33;;;4.60;;
19788;SDS011;10054;59.332;18.244;2023-05-10T02:10:56;5.20;;;4.53;;
19788;SDS011;10054;59.332;18.244;2023-05-10T02:13:28;6.37;;;4.50;;
19788;SDS011;10054;59.332;18.244;2023-05-10T02:15:59;5.03;;;4.33;;
19788;SDS011;10054;59.332;18.244;2023-05-10T02:18:32;5.50;;;4.30;;
19788;SDS011;10054;59.332;18.244;2023-05-10T02:21:03;6.60;;;4.50;;
19788;SDS011;10054;59.332;18.244;2023-05-10T02:23:33;5.00;;;4.43;;
19788;SDS011;10054;59.332;18.244;2023-05-10T02:26:04;6.37;;;4.43;;
19788;SDS011;10054;59.332;18.244;2023-05-10T02:28:34;9.20;;;5.10;;
19788;SDS011;10054;59.332;18.244;2023-05-10T02:31:05;6.60;;;4.63;;
19788;SDS011;10054;59.332;18.244;2023-05-10T02:33:40;7.50;;;4.40;;
19788;SDS011;10054;59.332;18.244;2023-05-10T02:36:10;7.00;;;5.03;;
19788;SDS011;10054;59.332;18.244;2023-05-10T02:38:41;5.73;;;4.60;;
19788;SDS011;10054;59.332;18.244;2023-05-10T02:41:10;6.13;;;5.00;;
19788;SDS011;10054;59.332;18.244;2023-05-10T02:43:41;6.20;;;4.63;;
19788;SDS011;10054;59.332;18.244;2023-05-10T02:46:11;5.83;;;4.40;;
19788;SDS011;10054;59.332;18.244;2023-05-10T02:48:40;5.23;;;4.07;;
19788;SDS011;10054;59.332;18.244;2023-05-10T02:51:08;5.60;;;4.37;;
19788;SDS011;10054;59.332;18.244;2023-05-10T02:53:40;5.33;;;4.83;;
19788;SDS011;10054;59.332;18.244;2023-05-10T02:56:13;6.33;;;4.67;;
19788;SDS011;10054;59.332;18.244;2023-05-10T02:58:43;6.10;;;4.33;;
19788;SDS011;10054;59.332;18.244;2023-05-10T03:01:12;4.77;;;4.23;;
19788;SDS011;10054;59.332;18.244;2023-05-10T03:03:42;6.27;;;4.40;;
19788;SDS011;10054;59.332;18.244;2023-05-10T03:06:10;7.37;;;4.43;;
19788;SDS011;10054;59.332;18.244;2023-05-10T03:08:39;4.80;;;4.40;;
19788;SDS011;10054;59.332;18.244;2023-05-10T03:11:24;6.13;;;4.23;;
19788;SDS011;10054;59.332;18.244;2023-05-10T03:14:33;6.30;;;4.40;;
19788;SDS011;10054;59.332;18.244;2023-05-10T03:17:08;4.80;;;4.33;;
19788;SDS011;10054;59.332;18.244;2023-05-10T03:19:54;5.37;;;4.37;;
19788;SDS011;10054;59.332;18.244;2023-05-10T03:22:26;5.20;;;4.13;;
19788;SDS011;10054;59.332;18.244;2023-05-10T03:24:59;4.80;;;4.30;;
19788;SDS011;10054;59.332;18.244;2023-05-10T03:27:30;4.53;;;4.10;;
19788;SDS011;10054;59.332;18.244;2023-05-10T03:30:00;6.00;;;4.30;;
19788;SDS011;10054;59.332;18.244;2023-05-10T03:32:31;4.83;;;3.97;;
19788;SDS011;10054;59.332;18.244;2023-05-10T03:35:05;4.60;;;4.20;;
19788;SDS011;10054;59.332;18.244;2023-05-10T03:37:35;7.50;;;4.23;;
19788;SDS011;10054;59.332;18.244;2023-05-10T03:40:05;6.80;;;4.67;;
19788;SDS011;10054;59.332;18.244;2023-05-10T03:42:35;11.97;;;4.43;;
19788;SDS011;10054;59.332;18.244;2023-05-10T03:45:05;7.87;;;4.00;;
19788;SDS011;10054;59.332;18.244;2023-05-10T03:47:34;5.17;;;4.20;;
19788;SDS011;10054;59.332;18.244;2023-05-10T03:50:04;8.43;;;3.87;;
19788;SDS011;10054;59.332;18.244;2023-05-10T03:52:33;6.80;;;4.10;;
19788;SDS011;10054;59.332;18.244;2023-05-10T03:55:02;7.10;;;4.27;;
19788;SDS011;10054;59.332;18.244;2023-05-10T03:57:32;4.50;;;3.73;;
19788;SDS011;10054;59.332;18.244;2023-05-10T04:00:01;5.27;;;4.13;;
19788;SDS011;10054;59.332;18.244;2023-05-10T04:02:32;5.33;;;3.90;;
19788;SDS011;10054;59.332;18.244;2023-05-10T04:05:01;5.00;;;4.23;;
19788;SDS011;10054;59.332;18.244;2023-05-10T04:07:30;5.40;;;4.17;;
19788;SDS011;10054;59.332;18.244;2023-05-10T04:09:59;8.27;;;4.00;;
19788;SDS011;10054;59.332;18.244;2023-05-10T04:12:28;4.20;;;3.73;;
19788;SDS011;10054;59.332;18.244;2023-05-10T04:14:57;6.90;;;3.93;;
19788;SDS011;10054;59.332;18.244;2023-05-10T04:17:26;10.20;;;4.20;;
19788;SDS011;10054;59.332;18.244;2023-05-10T04:19:55;4.93;;;3.80;;
19788;SDS011;10054;59.332;18.244;2023-05-10T04:22:25;4.87;;;3.97;;
19788;SDS011;10054;59.332;18.244;2023-05-10T04:24:55;5.23;;;3.70;;
19788;SDS011;10054;59.332;18.244;2023-05-10T04:27:24;5.83;;;4.03;;
19788;SDS011;10054;59.332;18.244;2023-05-10T04:29:53;6.30;;;4.00;;
19788;SDS011;10054;59.332;18.244;2023-05-10T04:32:22;6.43;;;4.03;;
19788;SDS011;10054;59.332;18.244;2023-05-10T04:34:51;5.73;;;3.90;;
19788;SDS011;10054;59.332;18.244;2023-05-10T04:37:20;9.80;;;4.00;;
19788;SDS011;10054;59.332;18.244;2023-05-10T04:39:49;5.40;;;3.93;;
19788;SDS011;10054;59.332;18.244;2023-05-10T04:42:18;9.17;;;4.23;;
19788;SDS011;10054;59.332;18.244;2023-05-10T04:44:47;6.77;;;4.03;;
19788;SDS011;10054;59.332;18.244;2023-05-10T04:47:16;11.47;;;4.00;;
19788;SDS011;10054;59.332;18.244;2023-05-10T04:49:45;6.83;;;3.77;;
19788;SDS011;10054;59.332;18.244;2023-05-10T04:52:14;5.27;;;4.00;;
19788;SDS011;10054;59.332;18.244;2023-05-10T04:54:44;9.17;;;4.20;;
19788;SDS011;10054;59.332;18.244;2023-05-10T04:57:13;6.23;;;4.10;;
19788;SDS011;10054;59.332;18.244;2023-05-10T04:59:42;4.87;;;3.70;;
19788;SDS011;10054;59.332;18.244;2023-05-10T05:02:10;7.47;;;3.83;;
19788;SDS011;10054;59.332;18.244;2023-05-10T05:04:39;6.27;;;3.90;;
19788;SDS011;10054;59.332;18.244;2023-05-10T05:07:08;5.83;;;3.80;;
19788;SDS011;10054;59.332;18.244;2023-05-10T05:09:37;5.30;;;3.67;;
19788;SDS011;10054;59.332;18.244;2023-05-10T05:12:06;5.97;;;3.50;;
19788;SDS011;10054;59.332;18.244;2023-05-10T05:14:36;4.37;;;3.47;;
19788;SDS011;10054;59.332;18.244;2023-05-10T05:17:05;4.00;;;3.60;;
19788;SDS011;10054;59.332;18.244;2023-05-10T05:19:34;4.60;;;3.47;;
19788;SDS011;10054;59.332;18.244;2023-05-10T05:22:03;5.07;;;3.40;;
19788;SDS011;10054;59.332;18.244;2023-05-10T05:24:36;4.80;;;3.40;;
19788;SDS011;10054;59.332;18.244;2023-05-10T05:27:05;4.63;;;3.40;;
19788;SDS011;10054;59.332;18.244;2023-05-10T05:29:34;6.27;;;3.30;;
19788;SDS011;10054;59.332;18.244;2023-05-10T05:32:03;4.13;;;3.20;;
19788;SDS011;10054;59.332;18.244;2023-05-10T05:34:32;4.87;;;3.50;;
19788;SDS011;10054;59.332;18.244;2023-05-10T05:37:07;3.73;;;3.10;;
19788;SDS011;10054;59.332;18.244;2023-05-10T05:39:37;6.37;;;3.50;;
19788;SDS011;10054;59.332;18.244;2023-05-10T05:42:05;4.80;;;3.70;;
19788;SDS011;10054;59.332;18.244;2023-05-10T05:44:34;3.50;;;2.93;;
19788;SDS011;10054;59.332;18.244;2023-05-10T05:47:03;3.50;;;3.03;;
19788;SDS011;10054;59.332;18.244;2023-05-10T05:49:33;4.20;;;3.20;;
19788;SDS011;10054;59.332;18.244;2023-05-10T05:52:02;4.13;;;3.40;;
19788;SDS011;10054;59.332;18.244;2023-05-10T05:54:32;8.13;;;3.30;;
19788;SDS011;10054;59.332;18.244;2023-05-10T05:57:01;6.20;;;3.33;;
19788;SDS011;10054;59.332;18.244;2023-05-10T05:59:30;5.70;;;3.20;;
19788;SDS011;10054;59.332;18.244;2023-05-10T06:01:59;4.67;;;3.23;;
19788;SDS011;10054;59.332;18.244;2023-05-10T06:04:28;8.17;;;3.53;;
19788;SDS011;10054;59.332;18.244;2023-05-10T06:06:56;3.63;;;3.30;;
19788;SDS011;10054;59.332;18.244;2023-05-10T06:09:25;3.40;;;3.10;;
19788;SDS011;10054;59.332;18.244;2023-05-10T06:11:54;4.13;;;3.30;;
19788;SDS011;10054;59.332;18.244;2023-05-10T06:14:22;6.60;;;3.40;;
19788;SDS011;10054;59.332;18.244;2023-05-10T06:16:51;6.07;;;3.40;;
19788;SDS011;10054;59.332;18.244;2023-05-10T06:19:20;4.10;;;2.77;;
19788;SDS011;10054;59.332;18.244;2023-05-10T06:21:49;5.20;;;2.93;;
19788;SDS011;10054;59.332;18.244;2023-05-10T06:24:18;4.63;;;3.13;;
19788;SDS011;10054;59.332;18.244;2023-05-10T06:26:46;7.10;;;3.20;;
19788;SDS011;10054;59.332;18.244;2023-05-10T06:29:16;4.40;;;3.10;;
19788;SDS011;10054;59.332;18.244;2023-05-10T06:31:45;5.27;;;3.00;;
19788;SDS011;10054;59.332;18.244;2023-05-10T06:34:14;4.63;;;2.90;;
19788;SDS011;10054;59.332;18.244;2023-05-10T06:36:44;4.63;;;3.30;;
19788;SDS011;10054;59.332;18.244;2023-05-10T06:39:13;3.33;;;3.00;;
19788;SDS011;10054;59.332;18.244;2023-05-10T06:41:42;6.90;;;3.00;;
19788;SDS011;10054;59.332;18.244;2023-05-10T06:44:11;5.70;;;2.93;;
19788;SDS011;10054;59.332;18.244;2023-05-10T06:46:40;6.30;;;2.90;;
19788;SDS011;10054;59.332;18.244;2023-05-10T06:49:08;3.75;;;2.87;;
19788;SDS011;10054;59.332;18.244;2023-05-10T06:51:37;3.20;;;2.62;;
19788;SDS011;10054;59.332;18.244;2023-05-10T06:54:06;5.58;;;3.20;;
19788;SDS011;10054;59.332;18.244;2023-05-10T06:56:35;7.60;;;3.20;;
19788;SDS011;10054;59.332;18.244;2023-05-10T06:59:04;6.85;;;3.30;;
19788;SDS011;10054;59.332;18.244;2023-05-10T07:01:33;7.87;;;3.17;;
19788;SDS011;10054;59.332;18.244;2023-05-10T07:04:02;6.90;;;3.03;;
19788;SDS011;10054;59.332;18.244;2023-05-10T07:06:31;3.35;;;2.90;;
19788;SDS011;10054;59.332;18.244;2023-05-10T07:09:00;7.08;;;3.17;;
19788;SDS011;10054;59.332;18.244;2023-05-10T07:11:29;3.42;;;2.80;;
19788;SDS011;10054;59.332;18.244;2023-05-10T07:13:59;3.47;;;2.90;;
19788;SDS011;10054;59.332;18.244;2023-05-10T07:16:28;3.35;;;2.75;;
19788;SDS011;10054;59.332;18.244;2023-05-10T07:18:56;7.13;;;3.30;;
19788;SDS011;10054;59.332;18.244;2023-05-10T07:21:25;4.33;;;3.02;;
19788;SDS011;10054;59.332;18.244;2023-05-10T07:23:55;7.08;;;3.52;;
19788;SDS011;10054;59.332;18.244;2023-05-10T07:26:24;5.20;;;3.35;;
19788;SDS011;10054;59.332;18.244;2023-05-10T07:28:52;4.15;;;3.12;;
19788;SDS011;10054;59.332;18.244;2023-05-10T07:31:22;7.00;;;3.20;;
19788;SDS011;10054;59.332;18.244;2023-05-10T07:33:51;5.20;;;3.08;;
19788;SDS011;10054;59.332;18.244;2023-05-10T07:36:19;7.85;;;3.05;;
19788;SDS011;10054;59.332;18.244;2023-05-10T07:38:48;4.70;;;3.33;;
19788;SDS011;10054;59.332;18.244;2023-05-10T07:41:17;6.42;;;3.05;;
19788;SDS011;10054;59.332;18.244;2023-05-10T07:43:47;7.25;;;2.83;;
19788;SDS011;10054;59.332;18.244;2023-05-10T07:46:16;4.08;;;2.70;;
19788;SDS011;10054;59.332;18.244;2023-05-10T07:48:46;7.00;;;2.80;;
19788;SDS011;10054;59.332;18.244;2023-05-10T07:51:15;6.10;;;2.67;;
19788;SDS011;10054;59.332;18.244;2023-05-10T07:53:44;4.97;;;2.90;;
19788;SDS011;10054;59.332;18.244;2023-05-10T07:58:57;5.62;;;2.80;;
19788;SDS011;10054;59.332;18.244;2023-05-10T08:01:33;4.85;;;2.83;;
19788;SDS011;10054;59.332;18.244;2023-05-10T08:04:02;6.08;;;2.85;;
19788;SDS011;10054;59.332;18.244;2023-05-10T08:06:31;4.25;;;2.90;;
19788;SDS011;10054;59.332;18.244;2023-05-10T08:09:00;7.65;;;2.92;;
19788;SDS011;10054;59.332;18.244;2023-05-10T08:11:29;4.70;;;2.77;;
19788;SDS011;10054;59.332;18.244;2023-05-10T08:13:58;5.30;;;2.70;;
19788;SDS011;10054;59.332;18.244;2023-05-10T08:16:26;5.17;;;2.87;;
19788;SDS011;10054;59.332;18.244;2023-05-10T08:18:55;3.58;;;3.20;;
19788;SDS011;10054;59.332;18.244;2023-05-10T08:21:24;3.00;;;2.75;;
19788;SDS011;10054;59.332;18.244;2023-05-10T08:23:53;4.47;;;2.80;;
19788;SDS011;10054;59.332;18.244;2023-05-10T08:26:22;6.03;;;3.00;;
19788;SDS011;10054;59.332;18.244;2023-05-10T08:28:50;3.25;;;2.65;;
19788;SDS011;10054;59.332;18.244;2023-05-10T08:31:19;3.98;;;2.90;;
19788;SDS011;10054;59.332;18.244;2023-05-10T08:33:48;4.80;;;2.80;;
19788;SDS011;10054;59.332;18.244;2023-05-10T08:36:18;4.12;;;3.02;;
19788;SDS011;10054;59.332;18.244;2023-05-10T08:38:50;3.27;;;2.98;;
19788;SDS011;10054;59.332;18.244;2023-05-10T08:41:22;4.05;;;3.05;;
19788;SDS011;10054;59.332;18.244;2023-05-10T08:43:53;3.10;;;2.80;;
19788;SDS011;10054;59.332;18.244;2023-05-10T08:46:22;5.85;;;2.70;;
19788;SDS011;10054;59.332;18.244;2023-05-10T08:48:51;5.97;;;3.00;;
19788;SDS011;10054;59.332;18.244;2023-05-10T08:51:22;4.45;;;2.87;;
19788;SDS011;10054;59.332;18.244;2023-05-10T08:53:55;4.00;;;3.00;;
19788;SDS011;10054;59.332;18.244;2023-05-10T08:56:24;3.27;;;2.90;;
19788;SDS011;10054;59.332;18.244;2023-05-10T08:58:53;5.60;;;2.95;;
19788;SDS011;10054;59.332;18.244;2023-05-10T09:01:22;3.27;;;2.98;;
19788;SDS011;10054;59.332;18.244;2023-05-10T09:03:51;5.03;;;2.80;;
19788;SDS011;10054;59.332;18.244;2023-05-10T09:06:20;6.20;;;2.87;;
19788;SDS011;10054;59.332;18.244;2023-05-10T09:08:50;6.42;;;3.22;;
19788;SDS011;10054;59.332;18.244;2023-05-10T09:11:19;3.33;;;3.00;;
19788;SDS011;10054;59.332;18.244;2023-05-10T09:13:48;4.17;;;3.10;;
19788;SDS011;10054;59.332;18.244;2023-05-10T09:16:18;3.33;;;2.83;;
19788;SDS011;10054;59.332;18.244;2023-05-10T09:18:47;5.65;;;3.12;;
19788;SDS011;10054;59.332;18.244;2023-05-10T09:21:16;3.92;;;2.72;;
19788;SDS011;10054;59.332;18.244;2023-05-10T09:23:47;4.35;;;2.72;;
19788;SDS011;10054;59.332;18.244;2023-05-10T09:26:16;3.08;;;2.83;;
19788;SDS011;10054;59.332;18.244;2023-05-10T09:29:02;4.03;;;2.90;;
19788;SDS011;10054;59.332;18.244;2023-05-10T09:34:48;4.25;;;2.90;;
19788;SDS011;10054;59.332;18.244;2023-05-10T09:37:02;3.00;;;2.70;;
19788;SDS011;10054;59.332;18.244;2023-05-10T09:39:37;4.65;;;2.98;;
19788;SDS011;10054;59.332;18.244;2023-05-10T09:42:06;4.65;;;2.90;;
19788;SDS011;10054;59.332;18.244;2023-05-10T09:44:36;4.75;;;2.98;;
19788;SDS011;10054;59.332;18.244;2023-05-10T09:47:07;6.28;;;3.10;;
19788;SDS011;10054;59.332;18.244;2023-05-10T09:49:35;5.33;;;3.02;;
19788;SDS011;10054;59.332;18.244;2023-05-10T09:52:05;3.85;;;2.92;;
19788;SDS011;10054;59.332;18.244;2023-05-10T09:54:35;7.80;;;3.15;;
19788;SDS011;10054;59.332;18.244;2023-05-10T09:57:04;76.72;;;6.83;;
19788;SDS011;10054;59.332;18.244;2023-05-10T09:59:32;16.12;;;4.05;;
19788;SDS011;10054;59.332;18.244;2023-05-10T10:02:02;15.83;;;3.20;;
19788;SDS011;10054;59.332;18.244;2023-05-10T10:04:31;10.82;;;3.27;;
19788;SDS011;10054;59.332;18.244;2023-05-10T10:07:02;7.20;;;3.27;;
19788;SDS011;10054;59.332;18.244;2023-05-10T10:09:32;4.85;;;3.10;;
19788;SDS011;10054;59.332;18.244;2023-05-10T10:12:02;4.55;;;3.00;;
19788;SDS011;10054;59.332;18.244;2023-05-10T10:14:32;4.12;;;3.17;;
19788;SDS011;10054;59.332;18.244;2023-05-10T10:17:03;3.25;;;2.80;;
19788;SDS011;10054;59.332;18.244;2023-05-10T10:19:35;2.87;;;2.55;;
19788;SDS011;10054;59.332;18.244;2023-05-10T10:22:04;5.28;;;2.85;;
19788;SDS011;10054;59.332;18.244;2023-05-10T10:24:33;4.45;;;3.00;;
19788;SDS011;10054;59.332;18.244;2023-05-10T10:35:25;3.80;;;2.83;;
19788;SDS011;10054;59.332;18.244;2023-05-10T10:37:54;3.47;;;2.85;;
19788;SDS011;10054;59.332;18.244;2023-05-10T10:40:23;4.55;;;2.92;;
19788;SDS011;10054;59.332;18.244;2023-05-10T10:42:53;3.67;;;2.95;;
19788;SDS011;10054;59.332;18.244;2023-05-10T10:45:23;5.85;;;3.22;;
19788;SDS011;10054;59.332;18.244;2023-05-10T10:50:55;3.27;;;2.65;;
19788;SDS011;10054;59.332;18.244;2023-05-10T10:53:21;4.47;;;2.90;;
19788;SDS011;10054;59.332;18.244;2023-05-10T10:55:51;5.87;;;2.72;;
19788;SDS011;10054;59.332;18.244;2023-05-10T10:58:30;9.38;;;2.83;;
19788;SDS011;10054;59.332;18.244;2023-05-10T11:01:10;4.58;;;3.08;;
19788;SDS011;10054;59.332;18.244;2023-05-10T11:03:40;7.30;;;2.87;;
19788;SDS011;10054;59.332;18.244;2023-05-10T11:06:10;5.83;;;3.08;;
19788;SDS011;10054;59.332;18.244;2023-05-10T11:08:42;5.00;;;2.98;;
19788;SDS011;10054;59.332;18.244;2023-05-10T11:11:13;3.20;;;2.90;;
19788;SDS011;10054;59.332;18.244;2023-05-10T11:13:42;6.42;;;3.10;;
19788;SDS011;10054;59.332;18.244;2023-05-10T11:16:18;7.28;;;3.00;;
19788;SDS011;10054;59.332;18.244;2023-05-10T11:18:57;3.77;;;3.08;;
19788;SDS011;10054;59.332;18.244;2023-05-10T11:21:29;6.55;;;3.27;;
19788;SDS011;10054;59.332;18.244;2023-05-10T11:23:59;3.70;;;3.22;;
19788;SDS011;10054;59.332;18.244;2023-05-10T11:26:32;6.65;;;3.35;;
19788;SDS011;10054;59.332;18.244;2023-05-10T11:29:04;4.97;;;3.08;;
19788;SDS011;10054;59.332;18.244;2023-05-10T11:31:33;5.55;;;3.02;;
19788;SDS011;10054;59.332;18.244;2023-05-10T11:34:02;3.92;;;3.52;;
19788;SDS011;10054;59.332;18.244;2023-05-10T11:36:35;5.58;;;3.02;;
19788;SDS011;10054;59.332;18.244;2023-05-10T11:39:02;6.97;;;2.70;;
19788;SDS011;10054;59.332;18.244;2023-05-10T11:41:32;6.87;;;2.92;;
19788;SDS011;10054;59.332;18.244;2023-05-10T11:44:01;5.08;;;3.05;;
19788;SDS011;10054;59.332;18.244;2023-05-10T11:46:31;5.78;;;2.85;;
19788;SDS011;10054;59.332;18.244;2023-05-10T11:49:00;4.75;;;3.00;;
19788;SDS011;10054;59.332;18.244;2023-05-10T11:51:32;5.00;;;3.15;;
19788;SDS011;10054;59.332;18.244;2023-05-10T11:54:06;4.67;;;3.20;;
19788;SDS011;10054;59.332;18.244;2023-05-10T11:56:37;5.35;;;3.17;;
19788;SDS011;10054;59.332;18.244;2023-05-10T11:59:07;4.08;;;2.83;;
19788;SDS011;10054;59.332;18.244;2023-05-10T12:01:36;2.85;;;2.65;;
19788;SDS011;10054;59.332;18.244;2023-05-10T12:04:05;3.02;;;2.72;;
19788;SDS011;10054;59.332;18.244;2023-05-10T12:06:37;4.60;;;2.77;;
19788;SDS011;10054;59.332;18.244;2023-05-10T12:09:06;3.25;;;2.75;;
19788;SDS011;10054;59.332;18.244;2023-05-10T12:11:39;4.35;;;3.00;;
19788;SDS011;10054;59.332;18.244;2023-05-10T12:14:08;3.80;;;2.65;;
19788;SDS011;10054;59.332;18.244;2023-05-10T12:16:37;6.53;;;3.22;;
19788;SDS011;10054;59.332;18.244;2023-05-10T12:19:09;3.40;;;2.83;;
19788;SDS011;10054;59.332;18.244;2023-05-10T12:21:38;3.65;;;2.92;;
19788;SDS011;10054;59.332;18.244;2023-05-10T12:24:08;3.92;;;3.12;;
19788;SDS011;10054;59.332;18.244;2023-05-10T12:26:37;3.25;;;2.92;;
19788;SDS011;10054;59.332;18.244;2023-05-10T12:29:12;5.45;;;2.90;;
19788;SDS011;10054;59.332;18.244;2023-05-10T12:31:56;6.10;;;3.27;;
19788;SDS011;10054;59.332;18.244;2023-05-10T12:34:26;4.55;;;2.90;;
19788;SDS011;10054;59.332;18.244;2023-05-10T12:37:00;7.00;;;3.40;;
19788;SDS011;10054;59.332;18.244;2023-05-10T12:39:43;8.73;;;3.10;;
19788;SDS011;10054;59.332;18.244;2023-05-10T12:42:12;3.92;;;2.85;;
19788;SDS011;10054;59.332;18.244;2023-05-10T12:44:41;6.10;;;2.80;;
19788;SDS011;10054;59.332;18.244;2023-05-10T12:47:10;6.72;;;2.65;;
19788;SDS011;10054;59.332;18.244;2023-05-10T12:49:39;9.63;;;2.77;;
19788;SDS011;10054;59.332;18.244;2023-05-10T12:52:08;3.45;;;2.70;;
19788;SDS011;10054;59.332;18.244;2023-05-10T12:54:37;3.45;;;2.85;;
19788;SDS011;10054;59.332;18.244;2023-05-10T12:57:05;3.98;;;2.67;;
19788;SDS011;10054;59.332;18.244;2023-05-10T12:59:34;6.08;;;3.12;;
19788;SDS011;10054;59.332;18.244;2023-05-10T13:02:03;3.02;;;2.67;;
19788;SDS011;10054;59.332;18.244;2023-05-10T13:04:31;7.05;;;3.27;;
19788;SDS011;10054;59.332;18.244;2023-05-10T13:07:01;9.53;;;3.17;;
19788;SDS011;10054;59.332;18.244;2023-05-10T13:09:30;3.17;;;2.62;;
19788;SDS011;10054;59.332;18.244;2023-05-10T13:11:59;5.90;;;2.58;;
19788;SDS011;10054;59.332;18.244;2023-05-10T13:14:28;8.63;;;2.85;;
19788;SDS011;10054;59.332;18.244;2023-05-10T13:16:57;4.47;;;2.60;;
19788;SDS011;10054;59.332;18.244;2023-05-10T13:19:26;3.45;;;2.33;;
19788;SDS011;10054;59.332;18.244;2023-05-10T13:21:55;2.87;;;2.50;;
19788;SDS011;10054;59.332;18.244;2023-05-10T13:24:24;2.35;;;2.08;;
19788;SDS011;10054;59.332;18.244;2023-05-10T13:26:53;6.35;;;2.52;;
19788;SDS011;10054;59.332;18.244;2023-05-10T13:29:22;2.65;;;2.35;;
19788;SDS011;10054;59.332;18.244;2023-05-10T13:31:51;9.10;;;3.02;;
19788;SDS011;10054;59.332;18.244;2023-05-10T13:34:19;5.62;;;2.70;;
19788;SDS011;10054;59.332;18.244;2023-05-10T13:36:48;4.92;;;2.22;;
19788;SDS011;10054;59.332;18.244;2023-05-10T13:39:17;6.28;;;2.40;;
19788;SDS011;10054;59.332;18.244;2023-05-10T13:41:47;2.67;;;2.35;;
19788;SDS011;10054;59.332;18.244;2023-05-10T13:44:16;3.65;;;2.60;;
19788;SDS011;10054;59.332;18.244;2023-05-10T13:46:44;6.10;;;2.90;;
19788;SDS011;10054;59.332;18.244;2023-05-10T13:49:14;2.80;;;2.50;;
19788;SDS011;10054;59.332;18.244;2023-05-10T13:51:43;4.80;;;2.37;;
19788;SDS011;10054;59.332;18.244;2023-05-10T13:54:12;4.85;;;2.20;;
19788;SDS011;10054;59.332;18.244;2023-05-10T13:56:41;3.70;;;2.30;;
19788;SDS011;10054;59.332;18.244;2023-05-10T13:59:10;3.95;;;2.35;;
19788;SDS011;10054;59.332;18.244;2023-05-10T14:01:44;4.15;;;2.30;;
19788;SDS011;10054;59.332;18.244;2023-05-10T14:04:12;3.40;;;2.10;;
19788;SDS011;10054;59.332;18.244;2023-05-10T14:06:41;3.05;;;2.37;;
19788;SDS011;10054;59.332;18.244;2023-05-10T14:09:09;4.20;;;2.40;;
19788;SDS011;10054;59.332;18.244;2023-05-10T14:11:38;4.25;;;2.40;;
19788;SDS011;10054;59.332;18.244;2023-05-10T14:14:09;7.60;;;2.15;;
19788;SDS011;10054;59.332;18.244;2023-05-10T14:16:38;5.83;;;2.30;;
19788;SDS011;10054;59.332;18.244;2023-05-10T14:19:11;3.27;;;2.05;;
19788;SDS011;10054;59.332;18.244;2023-05-10T14:21:39;3.55;;;2.08;;
19788;SDS011;10054;59.332;18.244;2023-05-10T14:24:09;5.03;;;2.20;;
19788;SDS011;10054;59.332;18.244;2023-05-10T14:26:38;4.55;;;2.22;;
19788;SDS011;10054;59.332;18.244;2023-05-10T14:29:07;3.47;;;2.20;;
19788;SDS011;10054;59.332;18.244;2023-05-10T14:31:36;7.62;;;2.27;;
19788;SDS011;10054;59.332;18.244;2023-05-10T14:34:05;6.03;;;2.58;;
19788;SDS011;10054;59.332;18.244;2023-05-10T14:36:33;3.70;;;2.30;;
19788;SDS011;10054;59.332;18.244;2023-05-10T14:39:02;3.62;;;2.30;;
19788;SDS011;10054;59.332;18.244;2023-05-10T14:41:31;2.35;;;2.05;;
19788;SDS011;10054;59.332;18.244;2023-05-10T14:44:00;2.58;;;2.27;;
19788;SDS011;10054;59.332;18.244;2023-05-10T14:46:29;3.92;;;2.00;;
19788;SDS011;10054;59.332;18.244;2023-05-10T14:48:58;4.67;;;2.30;;
19788;SDS011;10054;59.332;18.244;2023-05-10T14:51:27;2.22;;;2.02;;
19788;SDS011;10054;59.332;18.244;2023-05-10T14:53:56;2.85;;;2.20;;
19788;SDS011;10054;59.332;18.244;2023-05-10T14:56:25;2.30;;;2.05;;
19788;SDS011;10054;59.332;18.244;2023-05-10T14:58:54;4.58;;;2.20;;
19788;SDS011;10054;59.332;18.244;2023-05-10T15:01:23;5.72;;;2.05;;
19788;SDS011;10054;59.332;18.244;2023-05-10T15:03:51;2.35;;;2.15;;
19788;SDS011;10054;59.332;18.244;2023-05-10T15:06:24;2.58;;;2.37;;
19788;SDS011;10054;59.332;18.244;2023-05-10T15:08:55;2.08;;;1.98;;
19788;SDS011;10054;59.332;18.244;2023-05-10T15:11:24;2.42;;;2.22;;
19788;SDS011;10054;59.332;18.244;2023-05-10T15:13:52;4.60;;;2.10;;
19788;SDS011;10054;59.332;18.244;2023-05-10T15:16:21;2.92;;;2.08;;
19788;SDS011;10054;59.332;18.244;2023-05-10T15:18:50;4.53;;;2.05;;